sensor_id;sensor_type;location;lat;lon;timestamp;pressure;altitude;pressure_sealevel;temperature;humidity
818;BME280;391;51.052;6.954;2023-05-20T00:01:15;101537.06;;;18.42;43.79
818;BME280;391;51.052;6.954;2023-05-20T00:03:19;101531.75;;;18.39;43.80
818;BME280;391;51.052;6.954;2023-05-20T00:05:24;101531.69;;;18.33;44.10
818;BME280;391;51.052;6.954;2023-05-20T00:07:27;101535.22;;;18.30;44.27
818;BME280;391;51.052;6.954;2023-05-20T00:09:31;101538.72;;;18.28;44.35
818;BME280;391;51.052;6.954;2023-05-20T00:11:34;101533.31;;;18.19;44.34
818;BME280;391;51.052;6.954;2023-05-20T00:13:38;101543.06;;;18.24;44.45
818;BME280;391;51.052;6.954;2023-05-20T00:15:41;101505.03;;;18.06;44.44
818;BME280;391;51.052;6.954;2023-05-20T00:17:45;101544.66;;;18.10;44.63
818;BME280;391;51.052;6.954;2023-05-20T00:19:48;101555.09;;;17.98;44.63
818;BME280;391;51.052;6.954;2023-05-20T00:21:53;101480.69;;;17.56;44.76
818;BME280;391;51.052;6.954;2023-05-20T00:23:58;101541.75;;;17.87;44.96
818;BME280;391;51.052;6.954;2023-05-20T00:26:02;101536.53;;;17.92;45.02
818;BME280;391;51.052;6.954;2023-05-20T00:28:05;101540.06;;;17.92;45.20
818;BME280;391;51.052;6.954;2023-05-20T00:30:09;101494.91;;;17.68;45.16
818;BME280;391;51.052;6.954;2023-05-20T00:32:13;101544.50;;;17.95;45.30
818;BME280;391;51.052;6.954;2023-05-20T00:34:17;101525.03;;;17.87;45.49
818;BME280;391;51.052;6.954;2023-05-20T00:36:20;101536.56;;;17.95;45.60
818;BME280;391;51.052;6.954;2023-05-20T00:38:25;101534.78;;;17.94;45.67
818;BME280;391;51.052;6.954;2023-05-20T00:40:28;101537.47;;;17.97;45.69
818;BME280;391;51.052;6.954;2023-05-20T00:42:32;101537.47;;;17.95;45.33
818;BME280;391;51.052;6.954;2023-05-20T00:44:35;101533.00;;;17.91;45.40
818;BME280;391;51.052;6.954;2023-05-20T00:46:39;101539.16;;;17.89;45.39
818;BME280;391;51.052;6.954;2023-05-20T00:48:43;101532.97;;;17.88;45.48
818;BME280;391;51.052;6.954;2023-05-20T00:50:47;101527.63;;;17.84;45.39
818;BME280;391;51.052;6.954;2023-05-20T00:52:51;101527.69;;;17.88;45.64
818;BME280;391;51.052;6.954;2023-05-20T00:54:58;101525.06;;;17.88;45.56
818;BME280;391;51.052;6.954;2023-05-20T00:57:03;101527.66;;;17.85;45.37
818;BME280;391;51.052;6.954;2023-05-20T00:59:08;101526.78;;;17.83;45.72
818;BME280;391;51.052;6.954;2023-05-20T01:01:12;101526.78;;;17.83;45.81
818;BME280;391;51.052;6.954;2023-05-20T01:03:15;101526.75;;;17.80;45.94
818;BME280;391;51.052;6.954;2023-05-20T01:05:19;101517.00;;;17.76;45.79
818;BME280;391;51.052;6.954;2023-05-20T01:07:23;101514.28;;;17.69;46.09
818;BME280;391;51.052;6.954;2023-05-20T01:09:27;101510.75;;;17.68;46.12
818;BME280;391;51.052;6.954;2023-05-20T01:11:37;101509.81;;;17.65;46.41
818;BME280;391;51.052;6.954;2023-05-20T01:13:46;101511.59;;;17.66;46.34
818;BME280;391;51.052;6.954;2023-05-20T01:15:54;101511.56;;;17.61;46.49
818;BME280;391;51.052;6.954;2023-05-20T01:18:01;101467.19;;;17.31;46.35
818;BME280;391;51.052;6.954;2023-05-20T01:20:08;101505.13;;;17.44;46.76
818;BME280;391;51.052;6.954;2023-05-20T01:22:13;101511.22;;;17.40;46.92
818;BME280;391;51.052;6.954;2023-05-20T01:24:18;101521.75;;;17.40;46.90
818;BME280;391;51.052;6.954;2023-05-20T01:26:22;101508.38;;;17.25;47.10
818;BME280;391;51.052;6.954;2023-05-20T01:28:28;101514.47;;;17.21;47.38
818;BME280;391;51.052;6.954;2023-05-20T01:30:34;101503.78;;;17.10;47.48
818;BME280;391;51.052;6.954;2023-05-20T01:32:43;101508.94;;;17.03;47.90
818;BME280;391;51.052;6.954;2023-05-20T01:34:50;101497.34;;;16.91;47.93
818;BME280;391;51.052;6.954;2023-05-20T01:36:56;101503.50;;;16.90;47.96
818;BME280;391;51.052;6.954;2023-05-20T01:39:01;101505.09;;;16.81;48.16
818;BME280;391;51.052;6.954;2023-05-20T01:41:08;101495.97;;;16.61;48.52
818;BME280;391;51.052;6.954;2023-05-20T01:43:13;101494.81;;;16.45;48.91
818;BME280;391;51.052;6.954;2023-05-20T01:45:19;101485.94;;;16.40;49.16
818;BME280;391;51.052;6.954;2023-05-20T01:47:23;101483.25;;;16.37;49.00
818;BME280;391;51.052;6.954;2023-05-20T01:49:27;101486.91;;;16.45;49.46
818;BME280;391;51.052;6.954;2023-05-20T01:51:30;101494.72;;;16.40;49.59
818;BME280;391;51.052;6.954;2023-05-20T01:53:37;101488.41;;;16.31;49.63
818;BME280;391;51.052;6.954;2023-05-20T01:55:41;101477.63;;;16.16;50.16
818;BME280;391;51.052;6.954;2023-05-20T01:57:46;101492.38;;;16.08;50.76
818;BME280;391;51.052;6.954;2023-05-20T01:59:49;101487.59;;;15.85;51.09
818;BME280;391;51.052;6.954;2023-05-20T02:01:53;101481.38;;;15.83;51.61
818;BME280;391;51.052;6.954;2023-05-20T02:03:56;101485.75;;;15.83;51.93
818;BME280;391;51.052;6.954;2023-05-20T02:06:00;101487.53;;;15.82;52.20
818;BME280;391;51.052;6.954;2023-05-20T02:08:04;101476.00;;;15.77;52.45
818;BME280;391;51.052;6.954;2023-05-20T02:10:08;101482.13;;;15.76;52.25
818;BME280;391;51.052;6.954;2023-05-20T02:12:13;101466.09;;;15.64;52.66
818;BME280;391;51.052;6.954;2023-05-20T02:14:20;101474.88;;;15.63;52.93
818;BME280;391;51.052;6.954;2023-05-20T02:16:24;101474.69;;;15.56;53.20
818;BME280;391;51.052;6.954;2023-05-20T02:18:28;101469.44;;;15.56;53.30
818;BME280;391;51.052;6.954;2023-05-20T02:20:34;101478.25;;;15.58;53.55
818;BME280;391;51.052;6.954;2023-05-20T02:22:37;101461.16;;;15.39;53.72
818;BME280;391;51.052;6.954;2023-05-20T02:24:41;101475.09;;;15.35;54.11
818;BME280;391;51.052;6.954;2023-05-20T02:26:45;101468.75;;;15.24;54.50
818;BME280;391;51.052;6.954;2023-05-20T02:28:50;101473.94;;;15.21;54.88
818;BME280;391;51.052;6.954;2023-05-20T02:30:57;101429.47;;;14.91;55.42
818;BME280;391;51.052;6.954;2023-05-20T02:33:00;101457.69;;;15.00;55.83
818;BME280;391;51.052;6.954;2023-05-20T02:35:05;101462.91;;;14.98;56.10
818;BME280;391;51.052;6.954;2023-05-20T02:37:08;101455.81;;;14.94;56.39
818;BME280;391;51.052;6.954;2023-05-20T02:39:12;101453.19;;;14.94;56.44
818;BME280;391;51.052;6.954;2023-05-20T02:41:15;101466.38;;;14.97;56.58
818;BME280;391;51.052;6.954;2023-05-20T02:43:19;101461.19;;;15.00;56.45
818;BME280;391;51.052;6.954;2023-05-20T02:45:22;101448.06;;;15.00;56.49
818;BME280;391;51.052;6.954;2023-05-20T02:47:27;101458.69;;;15.06;56.36
818;BME280;391;51.052;6.954;2023-05-20T02:49:31;101459.59;;;15.07;56.10
818;BME280;391;51.052;6.954;2023-05-20T02:51:36;101458.63;;;15.03;56.13
818;BME280;391;51.052;6.954;2023-05-20T02:53:40;101454.19;;;14.99;56.27
818;BME280;391;51.052;6.954;2023-05-20T02:55:45;101457.53;;;14.94;56.32
818;BME280;391;51.052;6.954;2023-05-20T02:57:50;101449.44;;;14.83;56.52
818;BME280;391;51.052;6.954;2023-05-20T02:59:54;101440.56;;;14.78;56.82
818;BME280;391;51.052;6.954;2023-05-20T03:01:58;101453.75;;;14.81;57.01
818;BME280;391;51.052;6.954;2023-05-20T03:04:03;101409.53;;;14.60;57.20
818;BME280;391;51.052;6.954;2023-05-20T03:06:11;101445.16;;;14.88;57.18
818;BME280;391;51.052;6.954;2023-05-20T03:08:14;101447.03;;;14.94;56.99
818;BME280;391;51.052;6.954;2023-05-20T03:10:19;101448.88;;;14.98;56.67
818;BME280;391;51.052;6.954;2023-05-20T03:12:22;101439.22;;;14.95;56.86
818;BME280;391;51.052;6.954;2023-05-20T03:14:27;101371.63;;;14.49;56.93
818;BME280;391;51.052;6.954;2023-05-20T03:16:32;101429.84;;;14.69;57.24
818;BME280;391;51.052;6.954;2023-05-20T03:18:36;101426.19;;;14.62;57.50
818;BME280;391;51.052;6.954;2023-05-20T03:20:41;101420.03;;;14.60;57.71
818;BME280;391;51.052;6.954;2023-05-20T03:22:47;101428.69;;;14.56;58.06
818;BME280;391;51.052;6.954;2023-05-20T03:24:50;101422.59;;;14.59;57.57
818;BME280;391;51.052;6.954;2023-05-20T03:26:57;101433.47;;;14.74;57.89
818;BME280;391;51.052;6.954;2023-05-20T03:29:01;101407.00;;;14.65;57.79
818;BME280;391;51.052;6.954;2023-05-20T03:31:05;101450.53;;;14.93;57.80
818;BME280;391;51.052;6.954;2023-05-20T03:33:09;101443.56;;;14.93;57.52
818;BME280;391;51.052;6.954;2023-05-20T03:35:13;101441.91;;;15.00;57.59
818;BME280;391;51.052;6.954;2023-05-20T03:37:18;101441.97;;;15.01;57.67
818;BME280;391;51.052;6.954;2023-05-20T03:39:22;101411.78;;;14.82;57.58
818;BME280;391;51.052;6.954;2023-05-20T03:41:25;101435.63;;;14.92;57.54
818;BME280;391;51.052;6.954;2023-05-20T03:43:30;101441.66;;;14.88;57.62
818;BME280;391;51.052;6.954;2023-05-20T03:45:34;101442.28;;;14.77;57.89
818;BME280;391;51.052;6.954;2023-05-20T03:47:40;101433.38;;;14.71;58.18
818;BME280;391;51.052;6.954;2023-05-20T03:49:44;101432.38;;;14.64;58.18
818;BME280;391;51.052;6.954;2023-05-20T03:51:48;101397.66;;;14.39;58.54
818;BME280;391;51.052;6.954;2023-05-20T03:53:53;101420.59;;;14.49;58.76
818;BME280;391;51.052;6.954;2023-05-20T03:55:57;101437.09;;;14.43;58.93
818;BME280;391;51.052;6.954;2023-05-20T03:58:01;101428.13;;;14.34;59.20
818;BME280;391;51.052;6.954;2023-05-20T04:00:08;101428.91;;;14.31;59.57
818;BME280;391;51.052;6.954;2023-05-20T04:02:17;101429.16;;;14.40;59.61
818;BME280;391;51.052;6.954;2023-05-20T04:04:21;101394.59;;;14.22;59.68
818;BME280;391;51.052;6.954;2023-05-20T04:06:25;101431.91;;;14.45;59.56
818;BME280;391;51.052;6.954;2023-05-20T04:08:31;101413.59;;;14.48;59.49
818;BME280;391;51.052;6.954;2023-05-20T04:10:39;101436.53;;;14.55;59.39
818;BME280;391;51.052;6.954;2023-05-20T04:12:43;101425.28;;;14.60;59.58
818;BME280;391;51.052;6.954;2023-05-20T04:14:47;101407.81;;;14.61;59.24
818;BME280;391;51.052;6.954;2023-05-20T04:16:51;101425.69;;;14.78;59.26
818;BME280;391;51.052;6.954;2023-05-20T04:18:56;101430.19;;;14.84;59.13
818;BME280;391;51.052;6.954;2023-05-20T04:21:05;101424.28;;;14.93;59.11
818;BME280;391;51.052;6.954;2023-05-20T04:23:09;101423.63;;;15.03;58.76
818;BME280;391;51.052;6.954;2023-05-20T04:25:13;101427.25;;;15.09;58.69
818;BME280;391;51.052;6.954;2023-05-20T04:27:22;101416.91;;;15.15;58.54
818;BME280;391;51.052;6.954;2023-05-20T04:29:26;101415.13;;;15.16;58.50
818;BME280;391;51.052;6.954;2023-05-20T04:31:31;101422.34;;;15.24;58.35
818;BME280;391;51.052;6.954;2023-05-20T04:33:37;101364.03;;;15.00;58.26
818;BME280;391;51.052;6.954;2023-05-20T04:35:41;101430.59;;;15.43;58.12
818;BME280;391;51.052;6.954;2023-05-20T04:37:45;101434.38;;;15.54;57.97
818;BME280;391;51.052;6.954;2023-05-20T04:39:50;101430.66;;;15.46;57.94
818;BME280;391;51.052;6.954;2023-05-20T04:41:53;101433.31;;;15.47;58.03
818;BME280;391;51.052;6.954;2023-05-20T04:43:58;101423.41;;;15.34;58.31
818;BME280;391;51.052;6.954;2023-05-20T04:46:02;101431.25;;;15.32;58.50
818;BME280;391;51.052;6.954;2023-05-20T04:48:08;101429.69;;;15.42;58.24
818;BME280;391;51.052;6.954;2023-05-20T04:50:12;101421.81;;;15.42;58.15
818;BME280;391;51.052;6.954;2023-05-20T04:52:15;101423.56;;;15.42;58.26
818;BME280;391;51.052;6.954;2023-05-20T04:54:19;101426.53;;;15.57;58.15
818;BME280;391;51.052;6.954;2023-05-20T04:56:23;101419.72;;;15.68;58.06
818;BME280;391;51.052;6.954;2023-05-20T04:58:27;101425.16;;;15.77;57.70
818;BME280;391;51.052;6.954;2023-05-20T05:00:32;101432.31;;;15.84;57.55
818;BME280;391;51.052;6.954;2023-05-20T05:02:37;101383.59;;;15.56;57.52
818;BME280;391;51.052;6.954;2023-05-20T05:04:40;101434.72;;;15.73;57.36
818;BME280;391;51.052;6.954;2023-05-20T05:06:46;101427.38;;;15.56;57.71
818;BME280;391;51.052;6.954;2023-05-20T05:08:50;101429.84;;;15.48;58.19
818;BME280;391;51.052;6.954;2023-05-20T05:10:53;101435.28;;;15.56;57.98
818;BME280;391;51.052;6.954;2023-05-20T05:12:57;101437.16;;;15.63;58.05
818;BME280;391;51.052;6.954;2023-05-20T05:15:01;101434.72;;;15.73;57.78
818;BME280;391;51.052;6.954;2023-05-20T05:17:06;101426.84;;;15.73;57.59
818;BME280;391;51.052;6.954;2023-05-20T05:19:09;101414.25;;;15.57;57.85
818;BME280;391;51.052;6.954;2023-05-20T05:21:15;101434.81;;;15.78;58.01
818;BME280;391;51.052;6.954;2023-05-20T05:23:23;101434.03;;;15.83;58.07
818;BME280;391;51.052;6.954;2023-05-20T05:25:26;101424.63;;;15.96;57.60
818;BME280;391;51.052;6.954;2023-05-20T05:27:32;101425.56;;;16.00;57.54
818;BME280;391;51.052;6.954;2023-05-20T05:29:36;101427.56;;;16.13;57.19
818;BME280;391;51.052;6.954;2023-05-20T05:31:40;101428.53;;;16.18;57.27
818;BME280;391;51.052;6.954;2023-05-20T05:33:44;101427.78;;;16.25;57.12
818;BME280;391;51.052;6.954;2023-05-20T05:35:49;101397.47;;;15.97;57.06
818;BME280;391;51.052;6.954;2023-05-20T05:37:52;101418.69;;;16.06;57.29
818;BME280;391;51.052;6.954;2023-05-20T05:39:56;101411.78;;;16.11;57.10
818;BME280;391;51.052;6.954;2023-05-20T05:42:00;101414.66;;;16.26;56.84
818;BME280;391;51.052;6.954;2023-05-20T05:44:04;101399.72;;;16.25;57.01
818;BME280;391;51.052;6.954;2023-05-20T05:46:08;101404.09;;;16.25;56.40
818;BME280;391;51.052;6.954;2023-05-20T05:48:12;101411.94;;;16.22;56.51
818;BME280;391;51.052;6.954;2023-05-20T05:50:18;101378.34;;;16.06;56.61
818;BME280;391;51.052;6.954;2023-05-20T05:52:21;101388.84;;;16.06;56.65
818;BME280;391;51.052;6.954;2023-05-20T05:54:25;101276.53;;;15.48;56.78
818;BME280;391;51.052;6.954;2023-05-20T05:56:28;101401.44;;;16.25;56.81
818;BME280;391;51.052;6.954;2023-05-20T05:58:32;101397.00;;;16.19;56.75
818;BME280;391;51.052;6.954;2023-05-20T06:00:37;101402.06;;;16.09;56.69
818;BME280;391;51.052;6.954;2023-05-20T06:02:40;101404.22;;;16.32;56.70
818;BME280;391;51.052;6.954;2023-05-20T06:04:44;101401.88;;;16.49;56.31
818;BME280;391;51.052;6.954;2023-05-20T06:06:49;101388.63;;;16.45;56.04
818;BME280;391;51.052;6.954;2023-05-20T06:08:52;101392.09;;;16.43;56.31
818;BME280;391;51.052;6.954;2023-05-20T06:10:56;101285.03;;;15.84;55.92
818;BME280;391;51.052;6.954;2023-05-20T06:13:00;101395.66;;;16.47;56.38
818;BME280;391;51.052;6.954;2023-05-20T06:15:04;101397.66;;;16.60;55.98
818;BME280;391;51.052;6.954;2023-05-20T06:17:09;101384.50;;;16.60;55.87
818;BME280;391;51.052;6.954;2023-05-20T06:19:12;101396.66;;;16.52;56.17
818;BME280;391;51.052;6.954;2023-05-20T06:21:16;101355.22;;;16.40;56.08
818;BME280;391;51.052;6.954;2023-05-20T06:23:21;101387.31;;;16.72;56.01
818;BME280;391;51.052;6.954;2023-05-20T06:25:31;101390.94;;;16.80;55.95
818;BME280;391;51.052;6.954;2023-05-20T06:27:35;101389.31;;;16.91;55.66
818;BME280;391;51.052;6.954;2023-05-20T06:29:41;101392.88;;;16.95;55.65
818;BME280;391;51.052;6.954;2023-05-20T06:31:45;101394.50;;;16.84;56.14
818;BME280;391;51.052;6.954;2023-05-20T06:33:49;101394.63;;;16.93;56.11
818;BME280;391;51.052;6.954;2023-05-20T06:35:53;101393.19;;;17.16;55.81
818;BME280;391;51.052;6.954;2023-05-20T06:37:57;101385.34;;;17.24;55.39
818;BME280;391;51.052;6.954;2023-05-20T06:40:05;101399.59;;;17.38;55.06
818;BME280;391;51.052;6.954;2023-05-20T06:42:10;101403.13;;;17.40;55.01
818;BME280;391;51.052;6.954;2023-05-20T06:44:18;101382.75;;;17.27;54.85
818;BME280;391;51.052;6.954;2023-05-20T06:46:33;101392.44;;;17.29;54.71
818;BME280;391;51.052;6.954;2023-05-20T06:48:40;101386.31;;;17.30;54.83
818;BME280;391;51.052;6.954;2023-05-20T06:50:43;101391.63;;;17.32;54.60
818;BME280;391;51.052;6.954;2023-05-20T06:52:47;101382.78;;;17.30;54.79
818;BME280;391;51.052;6.954;2023-05-20T06:54:51;101393.41;;;17.34;54.96
818;BME280;391;51.052;6.954;2023-05-20T06:56:56;101391.66;;;17.36;55.07
818;BME280;391;51.052;6.954;2023-05-20T06:58:59;101382.97;;;17.43;54.84
818;BME280;391;51.052;6.954;2023-05-20T07:01:04;101385.63;;;17.46;54.78
818;BME280;391;51.052;6.954;2023-05-20T07:03:08;101389.88;;;17.34;54.73
818;BME280;391;51.052;6.954;2023-05-20T07:05:13;101379.41;;;17.40;54.83
818;BME280;391;51.052;6.954;2023-05-20T07:07:16;101382.13;;;17.48;54.62
818;BME280;391;51.052;6.954;2023-05-20T07:09:20;101383.16;;;17.59;54.56
818;BME280;391;51.052;6.954;2023-05-20T07:11:25;101385.06;;;17.70;54.49
818;BME280;391;51.052;6.954;2023-05-20T07:13:30;101382.41;;;17.72;54.36
818;BME280;391;51.052;6.954;2023-05-20T07:15:34;101380.75;;;17.80;54.51
818;BME280;391;51.052;6.954;2023-05-20T07:17:39;101378.16;;;17.87;54.63
818;BME280;391;51.052;6.954;2023-05-20T07:19:42;101372.06;;;17.91;54.54
818;BME280;391;51.052;6.954;2023-05-20T07:21:46;101372.09;;;17.96;54.56
818;BME280;391;51.052;6.954;2023-05-20T07:24:16;101376.59;;;18.08;54.67
818;BME280;391;51.052;6.954;2023-05-20T07:26:19;101373.13;;;18.12;54.37
818;BME280;391;51.052;6.954;2023-05-20T07:28:23;101361.66;;;18.13;54.25
818;BME280;391;51.052;6.954;2023-05-20T07:30:28;101369.72;;;18.25;54.01
818;BME280;391;51.052;6.954;2023-05-20T07:32:47;101366.19;;;18.29;53.88
818;BME280;391;51.052;6.954;2023-05-20T07:34:50;101363.59;;;18.33;53.87
818;BME280;391;51.052;6.954;2023-05-20T07:36:54;101338.03;;;18.25;53.89
818;BME280;391;51.052;6.954;2023-05-20T07:38:58;101360.09;;;18.34;54.09
818;BME280;391;51.052;6.954;2023-05-20T07:41:09;101357.44;;;18.33;54.03
818;BME280;391;51.052;6.954;2023-05-20T07:43:12;101365.44;;;18.43;54.14
818;BME280;391;51.052;6.954;2023-05-20T07:45:16;101356.72;;;18.51;53.82
818;BME280;391;51.052;6.954;2023-05-20T07:47:21;101361.16;;;18.58;53.82
818;BME280;391;51.052;6.954;2023-05-20T07:49:25;101368.25;;;18.65;53.54
818;BME280;391;51.052;6.954;2023-05-20T07:51:29;101366.47;;;18.62;53.34
818;BME280;391;51.052;6.954;2023-05-20T07:53:32;101362.94;;;18.60;53.51
818;BME280;391;51.052;6.954;2023-05-20T07:55:36;101362.97;;;18.63;53.70
818;BME280;391;51.052;6.954;2023-05-20T07:57:41;101370.03;;;18.66;53.59
818;BME280;391;51.052;6.954;2023-05-20T07:59:48;101305.53;;;18.38;53.69
818;BME280;391;51.052;6.954;2023-05-20T08:01:52;101353.28;;;18.65;53.62
818;BME280;391;51.052;6.954;2023-05-20T08:03:57;101358.63;;;18.77;53.59
818;BME280;391;51.052;6.954;2023-05-20T08:06:05;101340.94;;;18.63;53.24
818;BME280;391;51.052;6.954;2023-05-20T08:08:10;101357.72;;;18.72;53.33
818;BME280;391;51.052;6.954;2023-05-20T08:10:23;101363.03;;;18.77;53.74
818;BME280;391;51.052;6.954;2023-05-20T08:12:27;101363.06;;;18.84;53.63
818;BME280;391;51.052;6.954;2023-05-20T08:14:36;101335.72;;;18.76;53.34
818;BME280;391;51.052;6.954;2023-05-20T08:16:41;101357.75;;;18.75;52.74
818;BME280;391;51.052;6.954;2023-05-20T08:18:45;101363.91;;;18.70;53.40
818;BME280;391;51.052;6.954;2023-05-20T08:20:49;101356.91;;;18.82;53.62
818;BME280;391;51.052;6.954;2023-05-20T08:22:54;101350.75;;;18.82;53.37
818;BME280;391;51.052;6.954;2023-05-20T08:24:58;101350.78;;;18.91;53.68
818;BME280;391;51.052;6.954;2023-05-20T08:27:01;101355.25;;;19.04;53.08
818;BME280;391;51.052;6.954;2023-05-20T08:29:07;101354.38;;;19.10;52.72
818;BME280;391;51.052;6.954;2023-05-20T08:31:10;101357.00;;;19.07;52.53
818;BME280;391;51.052;6.954;2023-05-20T08:33:14;101352.56;;;18.99;52.77
818;BME280;391;51.052;6.954;2023-05-20T08:35:20;101359.66;;;19.03;52.53
818;BME280;391;51.052;6.954;2023-05-20T08:37:27;101360.56;;;19.13;52.84
818;BME280;391;51.052;6.954;2023-05-20T08:39:31;101347.34;;;19.15;52.70
818;BME280;391;51.052;6.954;2023-05-20T08:41:34;101356.22;;;19.26;52.60
818;BME280;391;51.052;6.954;2023-05-20T08:43:38;101361.50;;;19.26;52.31
818;BME280;391;51.052;6.954;2023-05-20T08:45:42;101350.91;;;19.26;52.16
818;BME280;391;51.052;6.954;2023-05-20T08:47:47;101353.59;;;19.36;52.41
818;BME280;391;51.052;6.954;2023-05-20T08:49:51;101343.06;;;19.42;51.79
818;BME280;391;51.052;6.954;2023-05-20T08:51:54;101321.81;;;19.26;52.02
818;BME280;391;51.052;6.954;2023-05-20T08:53:59;101326.25;;;19.34;51.82
818;BME280;391;51.052;6.954;2023-05-20T08:56:03;101344.84;;;19.49;51.98
818;BME280;391;51.052;6.954;2023-05-20T08:58:08;101348.38;;;19.54;51.95
818;BME280;391;51.052;6.954;2023-05-20T09:00:13;101336.03;;;19.50;51.76
818;BME280;391;51.052;6.954;2023-05-20T09:02:18;101340.41;;;19.44;51.83
818;BME280;391;51.052;6.954;2023-05-20T09:04:21;101338.66;;;19.40;52.29
818;BME280;391;51.052;6.954;2023-05-20T09:06:25;101350.13;;;19.51;52.30
818;BME280;391;51.052;6.954;2023-05-20T09:08:29;101347.53;;;19.59;51.93
818;BME280;391;51.052;6.954;2023-05-20T09:10:35;101348.38;;;19.54;51.74
818;BME280;391;51.052;6.954;2023-05-20T09:12:39;101349.25;;;19.53;51.82
818;BME280;391;51.052;6.954;2023-05-20T09:14:43;101343.09;;;19.58;51.83
818;BME280;391;51.052;6.954;2023-05-20T09:16:47;101354.56;;;19.58;51.77
818;BME280;391;51.052;6.954;2023-05-20T09:18:54;101345.75;;;19.58;51.70
818;BME280;391;51.052;6.954;2023-05-20T09:21:03;101354.56;;;19.58;51.25
818;BME280;391;51.052;6.954;2023-05-20T09:23:08;101310.41;;;19.36;51.16
818;BME280;391;51.052;6.954;2023-05-20T09:25:12;101349.28;;;19.55;51.42
818;BME280;391;51.052;6.954;2023-05-20T09:27:18;101347.47;;;19.43;51.82
818;BME280;391;51.052;6.954;2023-05-20T09:29:22;101352.78;;;19.48;51.66
818;BME280;391;51.052;6.954;2023-05-20T09:31:26;101344.88;;;19.52;51.48
818;BME280;391;51.052;6.954;2023-05-20T09:33:30;101347.50;;;19.57;51.51
818;BME280;391;51.052;6.954;2023-05-20T09:35:35;101334.28;;;19.52;51.50
818;BME280;391;51.052;6.954;2023-05-20T09:37:41;101340.44;;;19.61;51.60
818;BME280;391;51.052;6.954;2023-05-20T09:39:52;101316.63;;;19.58;51.47
818;BME280;391;51.052;6.954;2023-05-20T09:42:03;101326.34;;;19.49;51.68
818;BME280;391;51.052;6.954;2023-05-20T09:44:10;101330.75;;;19.46;51.74
818;BME280;391;51.052;6.954;2023-05-20T09:46:14;101336.03;;;19.66;51.98
818;BME280;391;51.052;6.954;2023-05-20T09:48:18;101343.13;;;19.77;51.16
818;BME280;391;51.052;6.954;2023-05-20T09:50:23;101329.88;;;19.85;51.73
818;BME280;391;51.052;6.954;2023-05-20T09:52:27;101336.06;;;20.02;51.56
818;BME280;391;51.052;6.954;2023-05-20T09:54:31;101339.59;;;20.21;51.27
818;BME280;391;51.052;6.954;2023-05-20T09:56:35;101338.75;;;20.28;50.62
818;BME280;391;51.052;6.954;2023-05-20T09:58:39;101336.09;;;20.31;50.23
818;BME280;391;51.052;6.954;2023-05-20T10:00:45;101334.31;;;20.27;49.96
818;BME280;391;51.052;6.954;2023-05-20T10:02:50;101331.66;;;20.34;50.54
818;BME280;391;51.052;6.954;2023-05-20T10:04:56;101298.09;;;20.24;50.23
818;BME280;391;51.052;6.954;2023-05-20T10:07:24;101336.97;;;20.42;50.28
818;BME280;391;51.052;6.954;2023-05-20T10:09:53;101339.59;;;20.45;50.66
818;BME280;391;51.052;6.954;2023-05-20T10:12:09;101224.03;;;19.71;50.08
818;BME280;391;51.052;6.954;2023-05-20T10:14:41;101328.94;;;20.58;50.13
818;BME280;391;51.052;6.954;2023-05-20T10:16:55;101326.34;;;20.48;50.13
818;BME280;391;51.052;6.954;2023-05-20T10:19:12;101328.09;;;20.56;49.92
818;BME280;391;51.052;6.954;2023-05-20T10:21:21;101312.22;;;20.50;50.23
818;BME280;391;51.052;6.954;2023-05-20T10:23:27;101326.28;;;20.69;50.01
818;BME280;391;51.052;6.954;2023-05-20T10:25:31;101337.75;;;20.79;49.49
818;BME280;391;51.052;6.954;2023-05-20T10:27:42;101333.31;;;20.75;49.78
818;BME280;391;51.052;6.954;2023-05-20T10:29:49;101331.59;;;20.65;49.77
818;BME280;391;51.052;6.954;2023-05-20T10:31:54;101328.06;;;20.67;50.39
818;BME280;391;51.052;6.954;2023-05-20T10:33:58;101335.13;;;20.70;50.49
818;BME280;391;51.052;6.954;2023-05-20T10:36:01;101333.38;;;20.61;50.19
818;BME280;391;51.052;6.954;2023-05-20T10:38:09;101336.06;;;20.50;50.43
818;BME280;391;51.052;6.954;2023-05-20T10:40:14;101343.97;;;20.55;49.66
818;BME280;391;51.052;6.954;2023-05-20T10:42:27;101283.97;;;20.24;50.10
818;BME280;391;51.052;6.954;2023-05-20T10:44:39;101332.53;;;20.48;50.05
818;BME280;391;51.052;6.954;2023-05-20T10:46:43;101339.63;;;20.31;49.81
818;BME280;391;51.052;6.954;2023-05-20T10:49:17;101329.91;;;20.32;50.64
818;BME280;391;51.052;6.954;2023-05-20T10:51:28;101343.13;;;20.26;50.36
818;BME280;391;51.052;6.954;2023-05-20T10:53:37;101337.84;;;20.23;50.30
818;BME280;391;51.052;6.954;2023-05-20T10:55:47;101344.88;;;20.24;50.61
818;BME280;391;51.052;6.954;2023-05-20T10:57:52;101332.56;;;20.32;51.17
818;BME280;391;51.052;6.954;2023-05-20T10:59:56;101307.81;;;20.22;51.44
818;BME280;391;51.052;6.954;2023-05-20T11:02:02;101329.84;;;20.53;51.48
818;BME280;391;51.052;6.954;2023-05-20T11:04:06;101328.03;;;20.73;51.40
818;BME280;391;51.052;6.954;2023-05-20T11:06:12;101333.34;;;20.73;50.41
818;BME280;391;51.052;6.954;2023-05-20T11:08:19;101332.44;;;20.74;50.16
818;BME280;391;51.052;6.954;2023-05-20T11:10:30;101330.72;;;20.67;50.74
818;BME280;391;51.052;6.954;2023-05-20T11:12:35;101329.84;;;20.64;50.81
818;BME280;391;51.052;6.954;2023-05-20T11:14:39;101333.38;;;20.67;51.20
818;BME280;391;51.052;6.954;2023-05-20T11:16:42;101326.25;;;20.75;51.91
818;BME280;391;51.052;6.954;2023-05-20T11:18:47;101328.84;;;20.92;51.33
818;BME280;391;51.052;6.954;2023-05-20T11:20:51;101301.47;;;20.93;51.55
818;BME280;391;51.052;6.954;2023-05-20T11:22:56;101328.81;;;21.05;50.68
818;BME280;391;51.052;6.954;2023-05-20T11:25:04;101291.72;;;20.90;50.39
818;BME280;391;51.052;6.954;2023-05-20T11:27:08;101315.47;;;21.27;50.70
818;BME280;391;51.052;6.954;2023-05-20T11:29:11;101313.63;;;21.36;49.54
818;BME280;391;51.052;6.954;2023-05-20T11:31:15;101315.41;;;21.33;50.04